Time;durP1;ratioP1;P1;durP2;ratioP2;P2;SDS_P1;SDS_P2;PMS_P1;PMS_P2;Temp;Humidity;BMP_temperature;BMP_pressure;BME280_temperature;BME280_humidity;BME280_pressure;Samples;Min_cycle;Max_cycle;Signal;HPM_P1;HPM_P2
2021/12/22 00:01:46;;;;;;;;;;;0.60;90.80;;;;;;5080760;28;19969;-69
2021/12/22 00:04:12;;;;;;;;;;;0.70;90.80;;;;;;5089999;28;19912;-69
2021/12/22 00:06:37;;;;;;;;;;;0.60;90.70;;;;;;5083247;28;19912;-69
2021/12/22 00:09:04;;;;;;;;;;;0.70;90.70;;;;;;5089162;28;19920;-69
2021/12/22 00:11:30;;;;;;;;;;;0.70;90.70;;;;;;5106714;28;19978;-69
2021/12/22 00:13:56;;;;;;;;;;;0.60;90.70;;;;;;5087684;28;20870;-69
2021/12/22 00:16:21;;;;;;;;;;;0.60;90.70;;;;;;5083126;28;19920;-69
2021/12/22 00:18:47;;;;;;;;;;;0.60;90.90;;;;;;5091633;28;19912;-69
2021/12/22 00:21:14;;;;;;;;;;;0.60;90.60;;;;;;5093149;28;19911;-69
2021/12/22 00:23:40;;;;;;;;;;;0.60;90.60;;;;;;5091426;28;19927;-69
2021/12/22 00:26:05;;;;;;;;;;;0.50;90.70;;;;;;5090577;28;20297;-69
2021/12/22 00:28:32;;;;;;;;;;;0.60;90.70;;;;;;5093681;28;19930;-69
2021/12/22 00:30:58;;;;;;;;;;;0.60;90.60;;;;;;5105764;28;19923;-69
2021/12/22 00:33:23;;;;;;;;;;;0.60;90.60;;;;;;5095129;28;19912;-69
2021/12/22 00:35:49;;;;;;;;;;;0.50;90.60;;;;;;5096927;28;19917;-69
2021/12/22 00:38:15;;;;;;;;;;;0.50;90.60;;;;;;5094106;28;20258;-69
2021/12/22 00:40:41;;;;;;;;;;;0.50;90.60;;;;;;5088221;28;20002;-69
2021/12/22 00:43:07;;;;;;;;;;;0.50;90.50;;;;;;5092231;28;20012;-69
2021/12/22 00:45:35;;;;;;;;;;;0.50;90.60;;;;;;5093559;28;19942;-69
2021/12/22 00:48:01;;;;;;;;;;;0.50;90.50;;;;;;5092380;28;19912;-70
2021/12/22 00:50:27;;;;;;;;;;;0.50;90.50;;;;;;5086258;28;19908;-69
2021/12/22 00:52:52;;;;;;;;;;;0.50;90.50;;;;;;5089118;28;20280;-69
2021/12/22 00:55:19;;;;;;;;;;;0.50;90.50;;;;;;5081814;28;19912;-69
2021/12/22 00:57:49;;;;;;;;;;;0.50;90.60;;;;;;5091538;28;19912;-69
2021/12/22 01:00:16;;;;;;;;;;;0.50;90.50;;;;;;5106857;28;19912;-69
2021/12/22 01:02:42;;;;;;;;;;;0.50;90.50;;;;;;5090984;28;20281;-69
2021/12/22 01:05:08;;;;;;;;;;;0.50;90.40;;;;;;5107539;28;19907;-69
2021/12/22 01:07:33;;;;;;;;;;;0.40;90.40;;;;;;5091946;28;20567;-69
2021/12/22 01:09:59;;;;;;;;;;;0.40;90.50;;;;;;5098848;28;19916;-69
2021/12/22 01:12:24;;;;;;;;;;;0.40;90.50;;;;;;5092436;28;19912;-69
2021/12/22 01:14:50;;;;;;;;;;;0.40;90.40;;;;;;5091946;28;19973;-69
2021/12/22 01:17:17;;;;;;;;;;;0.50;90.40;;;;;;5094921;28;19912;-69
2021/12/22 01:22:28;;;;;;;;;;;0.40;90.40;;;;;;5086506;28;19924;-69
2021/12/22 01:25:02;;;;;;;;;;;0.40;90.50;;;;;;5106757;28;19908;-69
2021/12/22 01:27:33;;;;;;;;;;;0.40;90.40;;;;;;5088968;28;19922;-69
2021/12/22 01:30:00;;;;;;;;;;;0.40;90.40;;;;;;5093490;28;19975;-69
2021/12/22 01:32:26;;;;;;;;;;;0.40;90.40;;;;;;5089896;28;19924;-69
2021/12/22 01:34:52;;;;;;;;;;;0.40;90.30;;;;;;5093278;28;19943;-69
2021/12/22 01:37:17;;;;;;;;;;;0.40;90.40;;;;;;5089963;28;19935;-69
2021/12/22 01:39:43;;;;;;;;;;;0.40;90.40;;;;;;5091476;28;19965;-69
2021/12/22 01:42:09;;;;;;;;;;;0.40;90.30;;;;;;5090404;28;19912;-69
2021/12/22 01:44:47;;;;;;;;;;;0.40;90.30;;;;;;5094157;28;19990;-69
2021/12/22 01:49:57;;;;;;;;;;;0.30;90.30;;;;;;5074914;28;19916;-69
2021/12/22 01:52:23;;;;;;;;;;;0.30;90.30;;;;;;5087915;28;19919;-69
2021/12/22 01:55:03;;;;;;;;;;;0.30;90.30;;;;;;5078411;28;19913;-69
2021/12/22 01:57:28;;;;;;;;;;;0.30;90.40;;;;;;5090074;28;19916;-69
2021/12/22 01:59:54;;;;;;;;;;;0.30;90.30;;;;;;5088596;28;20368;-70
2021/12/22 02:02:19;;;;;;;;;;;0.30;90.30;;;;;;5088459;28;19927;-69
2021/12/22 02:04:45;;;;;;;;;;;0.30;90.20;;;;;;5090868;28;19912;-69
2021/12/22 02:07:11;;;;;;;;;;;0.30;90.30;;;;;;5089299;28;19908;-69
2021/12/22 02:12:14;;;;;;;;;;;0.30;90.20;;;;;;5090362;28;20385;-69
2021/12/22 02:14:41;;;;;;;;;;;0.20;90.20;;;;;;5096896;28;19911;-69
2021/12/22 02:17:09;;;;;;;;;;;0.30;90.20;;;;;;5093815;28;19969;-69
2021/12/22 02:19:42;;;;;;;;;;;0.30;90.20;;;;;;5098343;28;19980;-69
2021/12/22 02:22:11;;;;;;;;;;;0.30;90.20;;;;;;5093085;28;19920;-69
2021/12/22 02:24:36;;;;;;;;;;;0.30;90.20;;;;;;5096983;28;19912;-70
2021/12/22 02:27:08;;;;;;;;;;;0.20;90.20;;;;;;5089704;28;20241;-69
2021/12/22 02:29:36;;;;;;;;;;;0.20;90.30;;;;;;5097136;28;19912;-69
2021/12/22 02:32:15;;;;;;;;;;;0.20;90.10;;;;;;5090725;28;20356;-69
2021/12/22 02:34:44;;;;;;;;;;;0.20;90.20;;;;;;5094361;28;19912;-69
2021/12/22 02:37:13;;;;;;;;;;;0.20;90.10;;;;;;5089006;28;19931;-69
2021/12/22 02:39:51;;;;;;;;;;;0.20;90.10;;;;;;5098269;27;20519;-69
2021/12/22 02:42:20;;;;;;;;;;;0.20;90.10;;;;;;5090977;28;19919;-69
2021/12/22 02:44:46;;;;;;;;;;;0.20;90.10;;;;;;5092423;28;19961;-69
2021/12/22 02:47:22;;;;;;;;;;;0.20;90.10;;;;;;5090924;28;19913;-69
2021/12/22 02:49:47;;;;;;;;;;;0.10;90.10;;;;;;5099494;28;19919;-69
2021/12/22 02:52:13;;;;;;;;;;;0.20;90.10;;;;;;5092718;28;19908;-69
2021/12/22 02:54:44;;;;;;;;;;;0.20;90.10;;;;;;5080318;28;20749;-70
2021/12/22 02:57:22;;;;;;;;;;;0.10;90.10;;;;;;5089647;28;19924;-69
2021/12/22 03:00:23;;;;;;;;;;;0.10;90.00;;;;;;5081018;28;19920;-69
2021/12/22 03:02:58;;;;;;;;;;;;;;;;;;;;;
2021/12/22 03:05:09;;;;;;;;;;;0.10;90.00;;;;;;5079967;28;19951;-69
2021/12/22 03:07:35;;;;;;;;;;;0.10;90.00;;;;;;5093014;28;19959;-69
2021/12/22 03:10:03;;;;;;;;;;;0.10;90.00;;;;;;5086026;28;19920;-70
2021/12/22 03:12:32;;;;;;;;;;;0.10;90.10;;;;;;5089471;28;19951;-69
2021/12/22 03:14:58;;;;;;;;;;;0.10;90.00;;;;;;5076793;28;20640;-69
2021/12/22 03:17:23;;;;;;;;;;;0.10;90.00;;;;;;5087690;28;19920;-70
2021/12/22 03:19:49;;;;;;;;;;;0.10;89.90;;;;;;5087464;28;19961;-69
2021/12/22 03:22:18;;;;;;;;;;;0.10;90.00;;;;;;5090263;28;19922;-69
2021/12/22 03:24:46;;;;;;;;;;;0.10;90.00;;;;;;5088199;28;19916;-69
2021/12/22 03:27:12;;;;;;;;;;;0.10;90.00;;;;;;5092070;28;19909;-69
2021/12/22 03:29:38;;;;;;;;;;;0.10;90.00;;;;;;5073431;28;20376;-69
2021/12/22 03:32:04;;;;;;;;;;;0.10;90.00;;;;;;5088967;28;19912;-69
2021/12/22 03:34:30;;;;;;;;;;;0.10;89.80;;;;;;5088515;28;20326;-70
2021/12/22 03:36:56;;;;;;;;;;;0.00;90.20;;;;;;5088286;28;19916;-69
2021/12/22 03:39:21;;;;;;;;;;;0.00;90.00;;;;;;5107270;28;20683;-69
2021/12/22 03:41:47;;;;;;;;;;;0.10;89.70;;;;;;5089509;28;19950;-69
2021/12/22 03:44:13;;;;;;;;;;;0.00;89.80;;;;;;5073121;28;19966;-69
2021/12/22 03:46:38;;;;;;;;;;;0.10;89.70;;;;;;5087661;28;19989;-69
2021/12/22 03:49:05;;;;;;;;;;;0.00;89.70;;;;;;5083655;28;19986;-69
2021/12/22 03:51:31;;;;;;;;;;;0.00;89.70;;;;;;5098502;28;20324;-69
2021/12/22 03:53:57;;;;;;;;;;;0.00;89.70;;;;;;5094238;28;19915;-69
2021/12/22 03:56:22;;;;;;;;;;;0.00;89.90;;;;;;5089603;28;19923;-70
2021/12/22 03:58:48;;;;;;;;;;;0.00;89.80;;;;;;5093654;28;19923;-69
2021/12/22 04:01:15;;;;;;;;;;;0.00;89.70;;;;;;5089769;28;22036;-69
2021/12/22 04:03:44;;;;;;;;;;;0.00;89.60;;;;;;5094688;28;20019;-69
2021/12/22 04:06:10;;;;;;;;;;;0.00;89.70;;;;;;5085689;28;19927;-69
2021/12/22 04:08:35;;;;;;;;;;;0.00;89.60;;;;;;5089740;28;19912;-69
2021/12/22 04:11:01;;;;;;;;;;;0.00;89.40;;;;;;5088231;28;19917;-69
2021/12/22 04:13:26;;;;;;;;;;;0.00;89.40;;;;;;5102844;28;19943;-69
2021/12/22 04:15:52;;;;;;;;;;;0.00;89.50;;;;;;5093197;28;19920;-69
2021/12/22 04:18:18;;;;;;;;;;;-0.10;89.60;;;;;;5098510;28;19993;-69
2021/12/22 04:20:43;;;;;;;;;;;-0.10;89.60;;;;;;5101271;28;19912;-69
2021/12/22 04:23:09;;;;;;;;;;;-0.10;89.60;;;;;;5095210;28;20253;-69
2021/12/22 04:25:35;;;;;;;;;;;0.00;89.40;;;;;;5090454;28;19913;-69
2021/12/22 04:28:03;;;;;;;;;;;-0.10;90.00;;;;;;5089939;28;19965;-69
2021/12/22 04:30:29;;;;;;;;;;;-0.10;89.40;;;;;;5101940;28;19913;-69
2021/12/22 04:32:54;;;;;;;;;;;0.00;89.50;;;;;;5093310;28;20277;-69
2021/12/22 04:35:20;;;;;;;;;;;-0.10;89.50;;;;;;5099002;28;19916;-69
2021/12/22 04:37:46;;;;;;;;;;;-0.10;89.50;;;;;;5100723;28;19957;-69
2021/12/22 04:40:11;;;;;;;;;;;-0.10;89.30;;;;;;5098457;28;19961;-69
2021/12/22 04:42:37;;;;;;;;;;;-0.10;89.60;;;;;;5091949;28;19920;-69
2021/12/22 04:45:05;;;;;;;;;;;-0.10;89.60;;;;;;5091685;28;19920;-69
2021/12/22 04:47:31;;;;;;;;;;;-0.10;89.60;;;;;;5094089;28;19909;-69
2021/12/22 04:49:57;;;;;;;;;;;-0.10;89.60;;;;;;5101029;28;19944;-69
2021/12/22 04:52:25;;;;;;;;;;;-0.10;89.60;;;;;;5086737;28;19951;-69
2021/12/22 04:55:03;;;;;;;;;;;-0.10;89.30;;;;;;5081622;28;19977;-69
2021/12/22 04:57:29;;;;;;;;;;;-0.10;89.40;;;;;;5090960;28;19913;-69
2021/12/22 04:59:55;;;;;;;;;;;-0.10;89.30;;;;;;5081033;28;19912;-69
2021/12/22 05:02:20;;;;;;;;;;;-0.10;89.40;;;;;;5087125;28;19927;-69
2021/12/22 05:04:46;;;;;;;;;;;-0.20;89.30;;;;;;5080118;28;19919;-69
2021/12/22 05:07:11;;;;;;;;;;;-0.10;89.40;;;;;;5091441;28;20258;-69
2021/12/22 05:09:37;;;;;;;;;;;-0.20;89.50;;;;;;5081698;28;19911;-69
2021/12/22 05:12:02;;;;;;;;;;;-0.20;89.40;;;;;;5093182;28;20277;-69
2021/12/22 05:14:28;;;;;;;;;;;-0.20;89.20;;;;;;5092926;28;19915;-69
2021/12/22 05:16:59;;;;;;;;;;;-0.20;89.30;;;;;;5088359;28;20555;-69
2021/12/22 05:19:25;;;;;;;;;;;-0.10;89.30;;;;;;5090622;28;19912;-69
2021/12/22 05:21:51;;;;;;;;;;;-0.20;89.30;;;;;;5088959;28;19919;-69
2021/12/22 05:24:16;;;;;;;;;;;-0.20;89.30;;;;;;5087345;28;20385;-69
2021/12/22 05:26:42;;;;;;;;;;;-0.20;89.30;;;;;;5089880;28;19908;-70
2021/12/22 05:29:07;;;;;;;;;;;-0.20;89.30;;;;;;5081436;28;19920;-69
2021/12/22 05:31:33;;;;;;;;;;;-0.20;89.10;;;;;;5091808;28;19948;-69
2021/12/22 05:33:58;;;;;;;;;;;-0.20;89.20;;;;;;5075077;28;19916;-69
2021/12/22 05:36:24;;;;;;;;;;;-0.20;89.10;;;;;;5089557;28;19912;-69
2021/12/22 05:38:50;;;;;;;;;;;-0.20;89.20;;;;;;5085479;28;19919;-70
2021/12/22 05:41:15;;;;;;;;;;;-0.20;89.20;;;;;;5087822;28;20259;-69
2021/12/22 05:43:41;;;;;;;;;;;-0.20;89.20;;;;;;5098252;28;19919;-69
2021/12/22 05:46:06;;;;;;;;;;;-0.20;89.20;;;;;;5091582;28;20441;-69
2021/12/22 05:48:32;;;;;;;;;;;-0.20;89.10;;;;;;5099882;28;19911;-69
2021/12/22 05:50:59;;;;;;;;;;;-0.20;89.20;;;;;;5090946;28;19919;-69
2021/12/22 05:53:25;;;;;;;;;;;-0.30;89.80;;;;;;5097338;28;19923;-69
2021/12/22 05:55:51;;;;;;;;;;;-0.30;89.20;;;;;;5090771;28;19920;-69
2021/12/22 05:58:16;;;;;;;;;;;-0.30;89.20;;;;;;5105733;28;19916;-69
2021/12/22 06:00:42;;;;;;;;;;;-0.20;89.70;;;;;;5090479;28;19916;-69
2021/12/22 06:03:10;;;;;;;;;;;-0.30;89.10;;;;;;5090844;28;19985;-69
2021/12/22 06:05:36;;;;;;;;;;;-0.20;89.20;;;;;;5091025;28;19927;-69
2021/12/22 06:08:01;;;;;;;;;;;-0.20;89.10;;;;;;5089600;28;19922;-69
2021/12/22 06:10:27;;;;;;;;;;;-0.30;89.10;;;;;;5085465;28;19920;-69
2021/12/22 06:12:52;;;;;;;;;;;-0.30;89.20;;;;;;5086295;28;19912;-69
2021/12/22 06:15:18;;;;;;;;;;;-0.30;89.20;;;;;;5089475;28;20353;-69
2021/12/22 06:17:43;;;;;;;;;;;-0.30;89.10;;;;;;5087477;28;19919;-69
2021/12/22 06:20:09;;;;;;;;;;;-0.30;89.20;;;;;;5091132;28;19913;-69
2021/12/22 06:22:36;;;;;;;;;;;-0.30;89.30;;;;;;5090392;28;19919;-70
2021/12/22 06:25:02;;;;;;;;;;;-0.30;89.10;;;;;;5092254;28;19917;-69
2021/12/22 06:27:28;;;;;;;;;;;-0.30;89.10;;;;;;5099944;28;19986;-70
2021/12/22 06:29:53;;;;;;;;;;;-0.30;89.20;;;;;;5091758;28;20361;-70
2021/12/22 06:32:19;;;;;;;;;;;-0.30;89.10;;;;;;5100252;28;19908;-69
2021/12/22 06:34:44;;;;;;;;;;;-0.30;89.20;;;;;;5090212;28;19912;-69
2021/12/22 06:37:12;;;;;;;;;;;-0.30;89.10;;;;;;5091335;28;19965;-70
2021/12/22 06:39:38;;;;;;;;;;;-0.30;89.20;;;;;;5089563;28;21255;-69
2021/12/22 06:42:06;;;;;;;;;;;-0.30;89.00;;;;;;5096447;28;19915;-69
2021/12/22 06:44:32;;;;;;;;;;;-0.30;89.10;;;;;;5086568;28;19920;-69
2021/12/22 06:46:57;;;;;;;;;;;-0.30;89.20;;;;;;5091381;28;20098;-69
2021/12/22 06:49:23;;;;;;;;;;;-0.30;89.20;;;;;;5087083;28;19952;-70
2021/12/22 06:51:49;;;;;;;;;;;-0.30;89.10;;;;;;5083631;28;19920;-70
2021/12/22 06:54:15;;;;;;;;;;;-0.30;89.20;;;;;;5082293;28;20613;-69
2021/12/22 06:56:40;;;;;;;;;;;-0.30;89.10;;;;;;5090525;28;19916;-69
2021/12/22 06:59:06;;;;;;;;;;;-0.30;89.00;;;;;;5091202;28;19919;-69
2021/12/22 07:01:34;;;;;;;;;;;-0.30;89.10;;;;;;5084709;28;20365;-69
2021/12/22 07:03:59;;;;;;;;;;;-0.30;89.00;;;;;;5080932;28;19969;-69
2021/12/22 07:06:25;;;;;;;;;;;-0.30;89.10;;;;;;5083836;28;19908;-69
2021/12/22 07:08:51;;;;;;;;;;;-0.30;89.10;;;;;;5078415;28;19916;-70
2021/12/22 07:11:17;;;;;;;;;;;-0.30;89.20;;;;;;5092596;28;19950;-69
2021/12/22 07:13:42;;;;;;;;;;;-0.30;89.10;;;;;;5090297;28;20339;-70
2021/12/22 07:16:08;;;;;;;;;;;-0.30;89.10;;;;;;5086784;28;19958;-69
2021/12/22 07:18:34;;;;;;;;;;;-0.30;89.20;;;;;;5079030;28;19915;-71
2021/12/22 07:21:00;;;;;;;;;;;-0.40;89.10;;;;;;5088407;28;19953;-73
2021/12/22 07:23:25;;;;;;;;;;;-0.30;89.10;;;;;;5075210;28;20661;-71
2021/12/22 07:25:51;;;;;;;;;;;-0.30;89.10;;;;;;5089143;28;20365;-72
2021/12/22 07:28:17;;;;;;;;;;;-0.30;89.00;;;;;;5081663;28;19912;-72
2021/12/22 07:30:42;;;;;;;;;;;-0.40;89.10;;;;;;5086910;28;19916;-72
2021/12/22 07:33:08;;;;;;;;;;;-0.30;88.90;;;;;;5076825;28;19912;-72
2021/12/22 07:35:38;;;;;;;;;;;-0.30;89.10;;;;;;5089129;28;19920;-71
2021/12/22 07:38:11;;;;;;;;;;;-0.40;89.10;;;;;;5086145;28;19912;-72
2021/12/22 07:40:36;;;;;;;;;;;-0.40;89.20;;;;;;5088155;28;21007;-72
2021/12/22 07:43:02;;;;;;;;;;;-0.40;89.00;;;;;;5094479;28;19955;-71
2021/12/22 07:45:28;;;;;;;;;;;-0.40;89.10;;;;;;5093445;28;19952;-72
2021/12/22 07:47:53;;;;;;;;;;;-0.40;89.10;;;;;;5084804;28;19942;-71
2021/12/22 07:50:19;;;;;;;;;;;-0.40;89.00;;;;;;5092332;28;20335;-72
2021/12/22 07:52:44;;;;;;;;;;;-0.30;89.00;;;;;;5087033;28;19962;-72
2021/12/22 07:55:10;;;;;;;;;;;-0.40;88.90;;;;;;5092544;28;19977;-72
2021/12/22 07:57:36;;;;;;;;;;;-0.40;88.90;;;;;;5085123;28;19912;-72
2021/12/22 08:00:02;;;;;;;;;;;-0.40;88.90;;;;;;5092621;28;19980;-71
2021/12/22 08:02:27;;;;;;;;;;;-0.30;88.90;;;;;;5101133;28;19916;-72
2021/12/22 08:04:53;;;;;;;;;;;-0.30;88.90;;;;;;5090849;28;19912;-72
2021/12/22 08:07:18;;;;;;;;;;;-0.30;88.90;;;;;;5096265;28;19912;-72
2021/12/22 08:09:44;;;;;;;;;;;-0.30;88.90;;;;;;5090995;28;19920;-72
2021/12/22 08:12:09;;;;;;;;;;;-0.40;89.00;;;;;;5094090;28;19981;-70
2021/12/22 08:14:37;;;;;;;;;;;-0.30;89.00;;;;;;5095845;28;19939;-69
2021/12/22 08:17:03;;;;;;;;;;;-0.30;88.90;;;;;;5093049;28;19942;-69
2021/12/22 08:19:28;;;;;;;;;;;-0.30;88.90;;;;;;5093069;28;19918;-70
2021/12/22 08:21:55;;;;;;;;;;;-0.40;89.10;;;;;;5092168;28;19912;-69
2021/12/22 08:24:21;;;;;;;;;;;-0.30;89.20;;;;;;5092924;28;19923;-70
2021/12/22 08:26:47;;;;;;;;;;;-0.30;89.10;;;;;;5093779;28;19935;-69
2021/12/22 08:29:12;;;;;;;;;;;-0.30;89.10;;;;;;5090398;28;20069;-70
2021/12/22 08:31:38;;;;;;;;;;;-0.30;89.10;;;;;;5092091;28;19919;-70
2021/12/22 08:34:05;;;;;;;;;;;-0.30;88.90;;;;;;5088668;28;19946;-69
2021/12/22 08:39:14;;;;;;;;;;;-0.30;89.20;;;;;;5086391;28;19981;-69
2021/12/22 08:41:43;;;;;;;;;;;-0.30;89.20;;;;;;5091189;28;19920;-69
2021/12/22 08:44:10;;;;;;;;;;;-0.30;89.10;;;;;;5093234;28;19916;-69
2021/12/22 08:46:37;;;;;;;;;;;-0.30;89.20;;;;;;5093013;28;19908;-69
2021/12/22 08:49:03;;;;;;;;;;;-0.30;89.30;;;;;;5088059;28;19999;-69
2021/12/22 08:51:29;;;;;;;;;;;-0.30;89.30;;;;;;5103398;28;20395;-69
2021/12/22 08:53:54;;;;;;;;;;;-0.30;89.30;;;;;;5086936;28;20002;-69
2021/12/22 08:56:20;;;;;;;;;;;-0.20;89.50;;;;;;5101443;28;19964;-69
2021/12/22 08:58:46;;;;;;;;;;;-0.20;89.50;;;;;;5096951;28;19919;-69
2021/12/22 09:01:12;;;;;;;;;;;-0.20;89.30;;;;;;5102263;28;19908;-70
2021/12/22 09:03:37;;;;;;;;;;;-0.20;89.40;;;;;;5098346;28;19924;-69
2021/12/22 09:06:03;;;;;;;;;;;-0.20;89.40;;;;;;5099226;28;20408;-69
2021/12/22 09:08:28;;;;;;;;;;;-0.20;89.60;;;;;;5101466;28;20007;-69
2021/12/22 09:10:54;;;;;;;;;;;-0.20;89.90;;;;;;5096246;28;19912;-69
2021/12/22 09:13:20;;;;;;;;;;;-0.20;90.00;;;;;;5094019;28;20626;-69
2021/12/22 09:15:46;;;;;;;;;;;-0.30;90.10;;;;;;5091137;28;19939;-69
2021/12/22 09:18:12;;;;;;;;;;;-0.20;90.10;;;;;;5093259;28;19966;-69
2021/12/22 09:20:38;;;;;;;;;;;-0.20;90.10;;;;;;5087211;28;19912;-69
2021/12/22 09:23:04;;;;;;;;;;;-0.20;90.20;;;;;;5083443;28;19916;-69
2021/12/22 09:25:29;;;;;;;;;;;-0.20;90.20;;;;;;5090890;28;19981;-69
2021/12/22 09:27:55;;;;;;;;;;;-0.20;90.20;;;;;;5099127;28;21314;-70
2021/12/22 09:30:20;;;;;;;;;;;-0.20;90.30;;;;;;5089682;28;19942;-69
2021/12/22 09:32:46;;;;;;;;;;;-0.20;90.40;;;;;;5101898;28;19997;-69
2021/12/22 09:35:11;;;;;;;;;;;-0.20;90.40;;;;;;5093569;28;19912;-69
2021/12/22 09:37:37;;;;;;;;;;;-0.20;90.40;;;;;;5102463;28;20390;-69
2021/12/22 09:40:04;;;;;;;;;;;-0.20;90.40;;;;;;5087581;28;19918;-69
2021/12/22 09:42:29;;;;;;;;;;;-0.20;90.40;;;;;;5094621;28;19974;-69
2021/12/22 09:44:58;;;;;;;;;;;-0.20;90.40;;;;;;5093317;28;20411;-69
2021/12/22 09:47:28;;;;;;;;;;;-0.20;90.50;;;;;;5100703;28;20328;-69
2021/12/22 09:50:09;;;;;;;;;;;-0.20;90.50;;;;;;5090404;27;19985;-69
2021/12/22 09:52:35;;;;;;;;;;;-0.20;90.60;;;;;;5098069;28;19916;-69
2021/12/22 09:55:01;;;;;;;;;;;-0.10;90.60;;;;;;5089831;28;20330;-69
2021/12/22 09:57:28;;;;;;;;;;;-0.10;90.60;;;;;;5097846;28;19917;-69
2021/12/22 09:59:54;;;;;;;;;;;-0.10;90.70;;;;;;5091078;28;19950;-69
2021/12/22 10:02:22;;;;;;;;;;;-0.10;90.70;;;;;;5082930;28;19982;-69
2021/12/22 10:04:48;;;;;;;;;;;-0.10;90.80;;;;;;5105944;27;19962;-69
2021/12/22 10:07:19;;;;;;;;;;;-0.20;90.80;;;;;;5090326;28;20315;-69
2021/12/22 10:09:46;;;;;;;;;;;-0.20;90.90;;;;;;5087854;28;19912;-69
2021/12/22 10:12:19;;;;;;;;;;;-0.10;91.00;;;;;;5085056;28;20404;-70
2021/12/22 10:15:04;;;;;;;;;;;-0.10;91.00;;;;;;5093653;28;19915;-69
2021/12/22 10:17:52;;;;;;;;;;;-0.10;91.00;;;;;;5102764;28;19918;-70
2021/12/22 10:20:20;;;;;;;;;;;-0.10;91.00;;;;;;5090110;28;19908;-69
2021/12/22 10:22:50;;;;;;;;;;;-0.10;91.20;;;;;;5089782;28;19923;-69
2021/12/22 10:25:17;;;;;;;;;;;-0.10;91.30;;;;;;5088965;28;19935;-69
2021/12/22 10:27:44;;;;;;;;;;;-0.10;91.30;;;;;;5090196;28;19934;-70
2021/12/22 10:30:39;;;;;;;;;;;-0.10;91.40;;;;;;5086242;28;19954;-69
2021/12/22 10:33:12;;;;;;;;;;;0.00;91.40;;;;;;5077337;28;19970;-69
2021/12/22 10:35:39;;;;;;;;;;;0.00;91.50;;;;;;5091587;28;19955;-70
2021/12/22 10:38:05;;;;;;;;;;;0.00;91.50;;;;;;5087530;28;20431;-69
2021/12/22 10:40:32;;;;;;;;;;;0.00;91.40;;;;;;5083609;28;19913;-69
2021/12/22 10:42:59;;;;;;;;;;;0.00;91.50;;;;;;5082716;28;19931;-69
2021/12/22 10:45:25;;;;;;;;;;;0.10;91.50;;;;;;5088889;28;19916;-69
2021/12/22 10:50:40;;;;;;;;;;;0.10;91.60;;;;;;5089423;28;19935;-69
2021/12/22 10:53:07;;;;;;;;;;;0.20;91.60;;;;;;5087843;28;20353;-69
2021/12/22 10:55:52;;;;;;;;;;;0.20;91.60;;;;;;5101704;28;19981;-70
2021/12/22 10:58:17;;;;;;;;;;;0.20;91.60;;;;;;5095431;28;19922;-70
2021/12/22 11:00:43;;;;;;;;;;;0.20;91.60;;;;;;5086147;28;19916;-69
2021/12/22 11:03:13;;;;;;;;;;;0.20;91.70;;;;;;5084651;28;20471;-69
2021/12/22 11:05:46;;;;;;;;;;;0.30;91.70;;;;;;5081362;28;19909;-69
2021/12/22 11:08:22;;;;;;;;;;;0.30;91.70;;;;;;5085714;28;19973;-69
2021/12/22 11:10:49;;;;;;;;;;;0.30;91.80;;;;;;5100311;28;20311;-69
2021/12/22 11:13:24;;;;;;;;;;;0.40;91.70;;;;;;5097493;28;19912;-69
2021/12/22 11:15:50;;;;;;;;;;;0.40;91.70;;;;;;5089483;28;19913;-70
2021/12/22 11:18:29;;;;;;;;;;;0.40;91.70;;;;;;5087124;28;19920;-70
2021/12/22 11:21:08;;;;;;;;;;;0.50;91.80;;;;;;5091311;28;20262;-69
2021/12/22 11:23:34;;;;;;;;;;;0.50;91.80;;;;;;5089817;28;20383;-69
2021/12/22 11:26:00;;;;;;;;;;;0.60;92.00;;;;;;5085880;28;19916;-70
2021/12/22 11:28:25;;;;;;;;;;;0.60;91.80;;;;;;5090533;28;19912;-69
2021/12/22 11:30:51;;;;;;;;;;;0.60;91.80;;;;;;5098402;28;19912;-69
2021/12/22 11:33:16;;;;;;;;;;;0.60;91.80;;;;;;5089645;28;19916;-69
2021/12/22 11:35:42;;;;;;;;;;;0.70;91.80;;;;;;5099720;28;20417;-69
2021/12/22 11:38:08;;;;;;;;;;;0.70;91.80;;;;;;5085633;28;19924;-69
2021/12/22 11:40:33;;;;;;;;;;;0.80;91.90;;;;;;5098743;28;19916;-70
2021/12/22 11:42:59;;;;;;;;;;;0.80;91.80;;;;;;5088882;28;19927;-70
2021/12/22 11:45:26;;;;;;;;;;;0.80;91.80;;;;;;5089091;28;19930;-69
2021/12/22 11:47:55;;;;;;;;;;;0.90;91.80;;;;;;5084733;28;19973;-69
2021/12/22 11:50:21;;;;;;;;;;;0.80;91.80;;;;;;5090389;28;19911;-70
2021/12/22 11:53:02;;;;;;;;;;;0.90;91.90;;;;;;5093850;28;19957;-70
2021/12/22 11:55:47;;;;;;;;;;;0.90;91.90;;;;;;5087440;28;19920;-69
2021/12/22 11:58:23;;;;;;;;;;;0.90;91.90;;;;;;5089924;28;19934;-69
2021/12/22 12:00:55;;;;;;;;;;;1.00;91.90;;;;;;5095027;28;20052;-69
2021/12/22 12:03:30;;;;;;;;;;;1.00;92.00;;;;;;5092625;28;20011;-70
2021/12/22 12:06:06;;;;;;;;;;;1.00;91.90;;;;;;5083485;28;19994;-69
2021/12/22 12:08:55;;;;;;;;;;;1.00;91.90;;;;;;5103858;28;19912;-70
2021/12/22 12:11:41;;;;;;;;;;;1.10;92.00;;;;;;5078297;28;19948;-69
2021/12/22 12:14:25;;;;;;;;;;;1.10;92.00;;;;;;5087504;28;19909;-69
2021/12/22 12:22:29;;;;;;;;;;;1.20;92.00;;;;;;5086310;28;20297;-69
2021/12/22 12:24:55;;;;;;;;;;;1.20;92.00;;;;;;5087250;28;19998;-69
2021/12/22 12:27:40;;;;;;;;;;;1.30;92.00;;;;;;5085503;28;20011;-69
2021/12/22 12:30:11;;;;;;;;;;;1.30;92.00;;;;;;5086087;28;20000;-69
2021/12/22 12:32:40;;;;;;;;;;;1.30;92.00;;;;;;5100702;27;20389;-70
2021/12/22 12:35:17;;;;;;;;;;;1.30;91.90;;;;;;5093177;28;19916;-69
2021/12/22 12:37:55;;;;;;;;;;;1.40;91.90;;;;;;5089804;28;20006;-69
2021/12/22 12:40:21;;;;;;;;;;;1.40;91.90;;;;;;5079862;28;19913;-69
2021/12/22 12:42:56;;;;;;;;;;;1.40;92.00;;;;;;5091658;28;19916;-69
2021/12/22 12:45:40;;;;;;;;;;;1.40;91.90;;;;;;5093299;28;19912;-69
2021/12/22 12:48:35;;;;;;;;;;;1.40;91.90;;;;;;5096018;27;19920;-69
2021/12/22 12:51:13;;;;;;;;;;;1.40;91.90;;;;;;5080937;28;19916;-69
2021/12/22 12:53:39;;;;;;;;;;;1.40;92.00;;;;;;5089021;28;19916;-70
2021/12/22 12:56:07;;;;;;;;;;;1.50;92.00;;;;;;5086122;28;19916;-70
2021/12/22 12:58:33;;;;;;;;;;;1.50;92.00;;;;;;5087024;28;19920;-69
2021/12/22 13:00:58;;;;;;;;;;;1.60;92.00;;;;;;5084802;28;19927;-70
2021/12/22 13:03:24;;;;;;;;;;;1.60;92.00;;;;;;5088498;28;20539;-69
2021/12/22 13:05:49;;;;;;;;;;;1.50;91.90;;;;;;5091253;28;19913;-69
2021/12/22 13:08:15;;;;;;;;;;;1.60;92.00;;;;;;5087099;28;20384;-69
2021/12/22 13:10:44;;;;;;;;;;;1.60;92.10;;;;;;5083858;28;20289;-69
2021/12/22 13:13:19;;;;;;;;;;;1.60;92.00;;;;;;5104278;27;19916;-69
2021/12/22 13:15:49;;;;;;;;;;;1.60;92.00;;;;;;5096785;28;19912;-69
2021/12/22 13:18:14;;;;;;;;;;;1.60;92.00;;;;;;5089561;28;20250;-69
2021/12/22 13:20:41;;;;;;;;;;;1.70;92.00;;;;;;5093869;28;19969;-69
2021/12/22 13:23:09;;;;;;;;;;;1.70;92.00;;;;;;5091982;28;19924;-69
2021/12/22 13:25:36;;;;;;;;;;;1.70;92.10;;;;;;5084154;28;19912;-69
2021/12/22 13:28:06;;;;;;;;;;;1.70;92.10;;;;;;5089744;28;20532;-69
2021/12/22 13:30:34;;;;;;;;;;;1.70;92.10;;;;;;5089611;28;19911;-70
2021/12/22 13:33:06;;;;;;;;;;;1.70;92.10;;;;;;5091550;28;20439;-69
2021/12/22 13:35:34;;;;;;;;;;;1.70;92.10;;;;;;5100157;28;20400;-69
2021/12/22 13:38:01;;;;;;;;;;;1.70;92.10;;;;;;5093438;28;20489;-69
2021/12/22 13:40:35;;;;;;;;;;;1.70;92.10;;;;;;5097992;28;19924;-69
2021/12/22 13:43:01;;;;;;;;;;;1.80;92.20;;;;;;5092395;28;19923;-69
2021/12/22 13:45:26;;;;;;;;;;;1.80;92.20;;;;;;5095171;28;19999;-69
2021/12/22 13:47:52;;;;;;;;;;;1.80;92.20;;;;;;5091423;28;19966;-70
2021/12/22 13:50:17;;;;;;;;;;;1.80;92.20;;;;;;5091642;28;19994;-69
2021/12/22 13:52:43;;;;;;;;;;;1.80;92.20;;;;;;5087176;28;20574;-69
2021/12/22 13:55:09;;;;;;;;;;;1.80;92.20;;;;;;5087817;28;19950;-69
2021/12/22 13:57:35;;;;;;;;;;;1.80;92.20;;;;;;5091208;28;20359;-69
2021/12/22 14:00:01;;;;;;;;;;;1.80;92.20;;;;;;5091813;28;19912;-69
2021/12/22 14:02:34;;;;;;;;;;;1.80;92.20;;;;;;5089849;28;19973;-69
2021/12/22 14:05:13;;;;;;;;;;;1.80;92.20;;;;;;5089684;28;19919;-69
2021/12/22 14:07:39;;;;;;;;;;;1.80;92.30;;;;;;5087141;28;20599;-70
2021/12/22 14:10:09;;;;;;;;;;;1.90;92.30;;;;;;5090002;28;19912;-69
2021/12/22 14:12:35;;;;;;;;;;;1.80;92.50;;;;;;5088440;28;19994;-69
2021/12/22 14:15:00;;;;;;;;;;;1.90;92.30;;;;;;5089529;28;20333;-69
2021/12/22 14:17:41;;;;;;;;;;;1.90;92.30;;;;;;5087215;28;19916;-69
2021/12/22 14:20:15;;;;;;;;;;;1.90;92.30;;;;;;5090813;28;19908;-69
2021/12/22 14:22:42;;;;;;;;;;;1.90;92.30;;;;;;5089910;28;20472;-69
2021/12/22 14:25:15;;;;;;;;;;;1.90;92.30;;;;;;5071987;28;19919;-69
2021/12/22 14:27:41;;;;;;;;;;;1.90;92.30;;;;;;5090995;28;19915;-69
2021/12/22 14:30:07;;;;;;;;;;;1.90;92.40;;;;;;5088734;28;19915;-69
2021/12/22 14:32:37;;;;;;;;;;;1.90;92.40;;;;;;5089781;28;19916;-69
2021/12/22 14:35:02;;;;;;;;;;;1.80;92.40;;;;;;5086778;28;19912;-69
2021/12/22 14:37:29;;;;;;;;;;;1.80;92.40;;;;;;5090335;28;20365;-69
2021/12/22 14:39:55;;;;;;;;;;;1.90;92.40;;;;;;5090296;28;19912;-69
2021/12/22 14:42:22;;;;;;;;;;;1.90;92.40;;;;;;5088806;28;19926;-69
2021/12/22 14:44:48;;;;;;;;;;;1.90;92.50;;;;;;5082290;28;19928;-69
2021/12/22 14:47:20;;;;;;;;;;;1.80;92.40;;;;;;5092128;28;19912;-69
2021/12/22 14:49:47;;;;;;;;;;;1.80;92.50;;;;;;5086000;28;20370;-69